Time;durP1;ratioP1;P1;durP2;ratioP2;P2;SDS_P1;SDS_P2;PMS_P1;PMS_P2;Temp;Humidity;BMP_temperature;BMP_pressure;BME280_temperature;BME280_humidity;BME280_pressure;Samples;Min_cycle;Max_cycle;Signal;HPM_P1;HPM_P2
2022/09/23 00:01:49;;;;;;;9.88;6.03;;;;;;;9.09;65.87;99403.53;5219143;28;20080;-71
2022/09/23 00:04:41;;;;;;;9.82;5.32;;;;;;;9.20;66.16;99400.03;5214242;28;20079;-70
2022/09/23 00:07:31;;;;;;;14.45;5.43;;;;;;;8.99;65.86;99398.16;5207030;28;20060;-71
2022/09/23 00:10:26;;;;;;;11.68;5.88;;;;;;;9.11;65.20;99396.34;5211048;28;20053;-72
2022/09/23 00:13:16;;;;;;;10.18;5.80;;;;;;;9.05;66.01;99397.66;5212807;28;20128;-71
2022/09/23 00:16:11;;;;;;;10.07;5.90;;;;;;;8.83;66.80;99392.41;5188150;28;20076;-71
2022/09/23 00:19:02;;;;;;;8.82;4.82;;;;;;;8.80;65.42;99398.78;5215213;28;20071;-72
2022/09/23 00:21:52;;;;;;;6.53;4.53;;;;;;;8.67;65.68;99392.78;5220551;28;20049;-71
2022/09/23 00:24:43;;;;;;;6.82;4.90;;;;;;;8.58;65.54;99401.47;5203536;28;20504;-71
2022/09/23 00:27:33;;;;;;;10.30;5.13;;;;;;;8.37;66.05;99375.72;5212000;28;20048;-71
2022/09/23 00:30:24;;;;;;;8.38;4.38;;;;;;;8.42;66.40;99381.53;5194989;28;20041;-71
2022/09/23 00:33:14;;;;;;;8.50;4.78;;;;;;;8.30;66.17;99374.53;5219365;28;20503;-72
2022/09/23 00:36:08;;;;;;;5.45;4.30;;;;;;;8.49;66.10;99392.47;5222611;28;20139;-72
2022/09/23 00:38:58;;;;;;;9.80;5.07;;;;;;;8.41;65.67;99392.19;5212832;28;20080;-71
2022/09/23 00:41:49;;;;;;;8.18;4.85;;;;;;;8.46;65.48;99396.19;5201920;28;20500;-72
2022/09/23 00:44:49;;;;;;;6.85;5.07;;;;;;;8.41;65.88;99390.44;5203069;28;20561;-72
2022/09/23 00:47:52;;;;;;;9.00;5.03;;;;;;;8.24;67.42;99383.78;5218364;28;20411;-71
2022/09/23 00:50:47;;;;;;;8.60;5.00;;;;;;;8.29;66.53;99386.06;5215632;28;20447;-71
2022/09/23 00:53:38;;;;;;;8.65;5.30;;;;;;;8.37;66.51;99388.94;5217524;28;20060;-72
2022/09/23 00:56:30;;;;;;;8.00;5.10;;;;;;;8.41;66.55;99376.34;5188127;28;20056;-72
2022/09/23 00:59:23;;;;;;;9.43;5.63;;;;;;;8.21;66.77;99381.38;5202329;28;20048;-72
2022/09/23 01:02:15;;;;;;;9.77;5.50;;;;;;;8.12;65.57;99373.34;5205248;28;20151;-72
2022/09/23 01:05:06;;;;;;;12.80;5.60;;;;;;;8.27;66.53;99380.03;5223152;28;20136;-71
2022/09/23 01:07:59;;;;;;;7.50;5.18;;;;;;;8.12;66.42;99376.81;5206056;28;20123;-72
2022/09/23 01:10:55;;;;;;;8.25;5.32;;;;;;;8.12;65.35;99373.34;5209608;28;20525;-71
2022/09/23 01:14:09;;;;;;;7.70;5.05;;;;;;;8.12;66.53;99376.81;5221515;28;20067;-72
2022/09/23 01:17:13;;;;;;;8.80;6.05;;;;;;;8.28;66.82;99376.47;5190563;28;20053;-72
2022/09/23 01:20:41;;;;;;;10.27;5.70;;;;;;;8.18;66.90;99370.22;5219187;28;20130;-72
2022/09/23 01:23:34;;;;;;;10.27;5.38;;;;;;;8.03;66.95;99371.41;5210327;28;20046;-71
2022/09/23 01:26:55;;;;;;;8.48;5.30;;;;;;;7.92;67.36;99378.34;5204010;28;20549;-71
2022/09/23 01:30:04;;;;;;;7.30;5.25;;;;;;;8.04;66.92;99368.63;5209127;28;20714;-72
2022/09/23 01:33:08;;;;;;;8.60;5.82;;;;;;;7.97;67.12;99376.19;5194320;28;20053;-72
2022/09/23 01:36:20;;;;;;;7.78;5.15;;;;;;;7.97;66.76;99370.91;5216684;28;20049;-71
2022/09/23 01:39:19;;;;;;;8.98;5.18;;;;;;;7.87;67.43;99367.28;5199815;28;20056;-71
2022/09/23 01:42:26;;;;;;;8.63;5.55;;;;;;;7.89;67.24;99361.91;5221719;28;20071;-72
2022/09/23 01:45:19;;;;;;;8.77;5.40;;;;;;;7.92;67.82;99367.78;5201312;28;20406;-72
2022/09/23 01:48:21;;;;;;;10.50;6.15;;;;;;;7.98;67.23;99369.97;5217641;28;20626;-71
2022/09/23 01:51:16;;;;;;;11.73;6.03;;;;;;;7.91;66.72;99363.47;5206627;28;20139;-71
2022/09/23 01:54:16;;;;;;;10.63;6.38;;;;;;;7.95;67.66;99356.16;5217073;28;20052;-71
2022/09/23 01:57:06;;;;;;;8.43;5.72;;;;;;;7.81;66.99;99351.91;5212675;28;20110;-72
2022/09/23 02:00:05;;;;;;;8.35;5.70;;;;;;;7.70;66.92;99351.91;5206821;28;20050;-72
2022/09/23 02:03:03;;;;;;;;;;;;;;;7.70;67.02;99350.09;5224130;28;20410;-71
2022/09/23 02:06:03;;;;;;;9.55;5.97;;;;;;;7.71;66.69;99354.41;5214969;28;19964;-72
2022/09/23 02:09:10;;;;;;;12.45;6.07;;;;;;;7.73;67.25;99346.38;5208416;28;20517;-72
2022/09/23 02:12:05;;;;;;;9.52;5.65;;;;;;;7.76;67.42;99347.00;5213746;28;20049;-71
2022/09/23 02:15:01;;;;;;;10.20;5.95;;;;;;;7.81;67.45;99336.06;5223436;28;20549;-72
2022/09/23 02:18:00;;;;;;;9.23;5.90;;;;;;;7.65;68.07;99336.44;5205531;28;20076;-71
2022/09/23 02:20:56;;;;;;;8.77;5.53;;;;;;;7.65;68.00;99346.97;5205378;28;20068;-71
2022/09/23 02:23:51;;;;;;;8.88;5.75;;;;;;;7.59;66.75;99344.81;5226060;28;20056;-70
2022/09/23 02:26:47;;;;;;;8.00;5.43;;;;;;;7.57;66.52;99343.22;5209401;28;20110;-71
2022/09/23 02:29:55;;;;;;;10.10;6.30;;;;;;;7.50;67.49;99348.97;5201290;28;20049;-71
2022/09/23 02:33:05;;;;;;;11.80;6.53;;;;;;;7.57;66.72;99340.59;5225373;28;20419;-72
2022/09/23 02:36:26;;;;;;;7.88;5.90;;;;;;;7.52;67.10;99338.31;5212980;28;20056;-72
2022/09/23 02:39:21;;;;;;;14.23;6.32;;;;;;;7.44;67.93;99333.59;5186334;28;20500;-72
2022/09/23 02:42:17;;;;;;;7.75;5.13;;;;;;;7.51;67.70;99340.09;5192818;28;20053;-72
2022/09/23 02:45:07;;;;;;;8.35;5.22;;;;;;;7.48;66.57;99336.84;5205906;28;20053;-71
2022/09/23 02:48:04;;;;;;;13.07;5.85;;;;;;;7.35;66.80;99339.59;5212408;28;20053;-71
2022/09/23 02:50:54;;;;;;;7.10;5.03;;;;;;;7.42;66.66;99339.97;5225357;28;20064;-72
2022/09/23 02:53:45;;;;;;;9.85;5.47;;;;;;;7.42;67.96;99335.53;5212023;28;20059;-72
2022/09/23 02:56:36;;;;;;;7.68;5.00;;;;;;;7.42;67.66;99316.22;5222041;28;20083;-71
2022/09/23 02:59:26;;;;;;;9.07;5.82;;;;;;;7.54;67.88;99329.28;5216912;28;20049;-71
2022/09/23 03:02:38;;;;;;;9.93;5.78;;;;;;;7.41;67.39;99332.97;5220655;28;20052;-72
2022/09/23 03:05:33;;;;;;;8.77;5.65;;;;;;;7.40;67.96;99326.88;5194764;28;20060;-72
2022/09/23 03:08:35;;;;;;;7.32;5.07;;;;;;;7.34;66.95;99322.06;5220661;28;20202;-72
2022/09/23 03:11:26;;;;;;;8.18;5.82;;;;;;;7.37;67.58;99319.19;5215102;28;20053;-72
2022/09/23 03:14:29;;;;;;;8.32;6.10;;;;;;;7.41;67.68;99314.50;5204267;28;20260;-71
2022/09/23 03:17:32;;;;;;;8.98;5.50;;;;;;;7.41;67.84;99320.63;5192511;28;20048;-71
2022/09/23 03:20:37;;;;;;;7.72;5.70;;;;;;;7.27;66.92;99323.47;5219304;28;20059;-71
2022/09/23 03:23:34;;;;;;;9.50;5.93;;;;;;;7.19;68.10;99325.84;5211695;28;20126;-72
2022/09/23 03:26:32;;;;;;;9.43;5.57;;;;;;;7.10;67.90;99326.53;5222853;28;20057;-71
2022/09/23 03:29:22;;;;;;;11.15;5.32;;;;;;;7.16;67.67;99324.28;5191558;28;20046;-72
2022/09/23 03:32:19;;;;;;;7.25;5.35;;;;;;;7.14;67.21;99325.34;5218184;28;20055;-71
2022/09/23 03:35:11;;;;;;;10.40;5.65;;;;;;;7.26;68.06;99321.81;5218039;28;20167;-72
2022/09/23 03:38:24;;;;;;;8.65;5.28;;;;;;;7.30;67.92;99317.97;5203985;28;20053;-71
2022/09/23 03:41:23;;;;;;;10.57;6.13;;;;;;;7.23;67.92;99293.00;5211096;28;20502;-71
2022/09/23 03:44:14;;;;;;;9.43;5.97;;;;;;;7.25;68.13;99304.28;5200953;28;20068;-71
2022/09/23 03:47:05;;;;;;;8.20;5.38;;;;;;;7.18;67.27;99303.88;5211651;28;20067;-72
2022/09/23 03:49:55;;;;;;;7.75;5.30;;;;;;;7.10;67.44;99308.06;5207320;28;20068;-72
2022/09/23 03:52:48;;;;;;;8.50;5.10;;;;;;;7.07;67.40;99302.06;5223830;28;20092;-72
2022/09/23 03:55:38;;;;;;;8.55;5.60;;;;;;;7.08;67.84;99300.25;5222041;28;20407;-72
2022/09/23 03:58:28;;;;;;;7.80;5.18;;;;;;;7.02;66.96;99306.84;5207541;28;20136;-71
2022/09/23 04:01:18;;;;;;;10.98;5.60;;;;;;;7.11;67.55;99299.19;5213554;28;20065;-72
2022/09/23 04:04:09;;;;;;;8.82;5.25;;;;;;;7.03;68.19;99297.97;5203779;28;20049;-71
2022/09/23 04:06:59;;;;;;;11.60;6.03;;;;;;;7.01;67.69;99281.41;5189959;28;20076;-72
2022/09/23 04:09:49;;;;;;;8.05;5.38;;;;;;;6.96;67.07;99280.09;5219317;28;20060;-72
2022/09/23 04:12:39;;;;;;;7.25;5.28;;;;;;;7.00;67.51;99286.81;5218689;28;20182;-72
2022/09/23 04:15:29;;;;;;;7.93;5.43;;;;;;;6.96;67.03;99280.94;5213493;28;20059;-72
2022/09/23 04:18:20;;;;;;;7.18;5.18;;;;;;;6.95;66.83;99287.13;5207309;28;20056;-72
2022/09/23 04:21:09;;;;;;;7.68;5.15;;;;;;;6.93;66.77;99270.63;5202224;28;20561;-72
2022/09/23 04:24:00;;;;;;;9.02;5.95;;;;;;;6.94;67.45;99271.47;5202728;28;20053;-72
2022/09/23 04:26:53;;;;;;;8.65;5.88;;;;;;;7.11;67.32;99284.22;5203427;28;20055;-71
2022/09/23 04:29:43;;;;;;;11.07;5.65;;;;;;;7.12;68.28;99282.41;5204363;28;20563;-71
2022/09/23 04:32:33;;;;;;;8.15;5.85;;;;;;;7.03;67.25;99278.69;5197428;28;20061;-72
2022/09/23 04:35:24;;;;;;;9.07;6.05;;;;;;;7.17;67.91;99280.28;5211964;28;20049;-72
2022/09/23 04:38:14;;;;;;;7.90;5.68;;;;;;;7.15;68.29;99282.19;5208866;28;20633;-72
2022/09/23 04:41:08;;;;;;;11.60;6.78;;;;;;;7.15;68.40;99287.47;5187090;28;20064;-71
2022/09/23 04:43:58;;;;;;;9.35;5.63;;;;;;;7.06;67.99;99281.94;5202634;28;20057;-73
2022/09/23 04:46:48;;;;;;;9.57;6.10;;;;;;;7.02;67.99;99279.66;5188372;28;20530;-72
2022/09/23 04:49:39;;;;;;;7.55;5.53;;;;;;;6.88;68.13;99253.44;5211804;28;20059;-71
2022/09/23 04:52:30;;;;;;;9.40;5.32;;;;;;;7.04;68.43;99278.56;5222867;28;20055;-70
2022/09/23 04:55:21;;;;;;;8.63;6.18;;;;;;;7.10;67.75;99286.97;5187686;28;20084;-69
2022/09/23 04:58:11;;;;;;;8.05;5.20;;;;;;;7.01;67.81;99278.78;5195370;28;20525;-70
2022/09/23 05:01:23;;;;;;;8.82;5.20;;;;;;;6.96;68.32;99283.56;5206270;28;20111;-70
2022/09/23 05:04:13;;;;;;;10.35;6.13;;;;;;;6.94;67.98;99285.47;5214853;28;20134;-70
2022/09/23 05:07:04;;;;;;;12.82;6.15;;;;;;;6.92;67.64;99290.03;5205405;28;20122;-70
2022/09/23 05:09:54;;;;;;;11.07;6.22;;;;;;;6.86;67.66;99290.47;5223019;28;20056;-71
2022/09/23 05:12:44;;;;;;;9.65;5.47;;;;;;;6.96;67.58;99288.84;5206010;28;20055;-72
2022/09/23 05:15:34;;;;;;;8.45;5.28;;;;;;;6.93;66.95;99304.06;5196967;28;20050;-70
2022/09/23 05:18:24;;;;;;;9.75;6.05;;;;;;;6.92;67.66;99308.50;5202694;28;20053;-73
2022/09/23 05:21:18;;;;;;;10.02;6.05;;;;;;;7.02;67.49;99306.84;5204634;28;20049;-70
2022/09/23 05:24:08;;;;;;;9.75;6.45;;;;;;;7.16;69.10;99287.34;5204494;28;20175;-70
2022/09/23 05:26:59;;;;;;;12.77;6.28;;;;;;;7.33;68.86;99307.19;5205870;28;20049;-70
2022/09/23 05:29:51;;;;;;;12.30;6.55;;;;;;;7.19;69.41;99305.59;5198101;28;20049;-70
2022/09/23 05:32:42;;;;;;;9.80;5.95;;;;;;;7.27;68.46;99305.00;5203492;28;20088;-70
2022/09/23 05:35:32;;;;;;;12.07;6.45;;;;;;;7.31;68.49;99301.19;5205415;28;20050;-69
2022/09/23 05:38:22;;;;;;;18.65;6.78;;;;;;;7.38;69.04;99304.19;5204014;28;20056;-69
2022/09/23 05:41:12;;;;;;;9.70;6.28;;;;;;;7.26;68.07;99293.63;5204410;28;20496;-72
2022/09/23 05:44:03;;;;;;;10.27;6.40;;;;;;;7.43;68.17;99313.44;5204695;28;20518;-70
2022/09/23 05:46:53;;;;;;;14.48;6.22;;;;;;;7.76;67.67;99290.72;5222609;28;20056;-71
2022/09/23 05:49:43;;;;;;;14.18;7.50;;;;;;;7.90;67.88;99311.59;5208124;28;20083;-70
2022/09/23 05:52:50;;;;;;;13.65;7.60;;;;;;;7.88;69.22;99302.13;5206636;28;20061;-71
2022/09/23 05:55:40;;;;;;;12.80;7.63;;;;;;;8.03;68.49;99293.00;5205428;28;20727;-71
2022/09/23 05:58:30;;;;;;;16.90;7.78;;;;;;;8.11;68.68;99300.31;5192766;28;20041;-71
2022/09/23 06:01:26;;;;;;;12.77;7.35;;;;;;;8.13;68.81;99298.41;5205809;28;20045;-71
2022/09/23 06:04:16;;;;;;;20.63;8.77;;;;;;;8.42;68.15;99298.78;5208338;28;20150;-70
2022/09/23 06:07:07;;;;;;;13.82;8.13;;;;;;;8.47;68.52;99304.53;5187346;28;20096;-72
2022/09/23 06:09:57;;;;;;;20.05;9.63;;;;;;;8.60;68.75;99307.84;5204175;28;20052;-71
2022/09/23 06:12:47;;;;;;;19.00;8.95;;;;;;;9.00;67.63;99301.13;5204858;28;20527;-72
2022/09/23 06:15:38;;;;;;;15.45;8.43;;;;;;;8.99;67.14;99275.66;5204131;28;20842;-71
2022/09/23 06:18:28;;;;;;;19.50;8.40;;;;;;;9.25;67.05;99287.56;5204138;28;20056;-72
2022/09/23 06:21:18;;;;;;;13.50;8.23;;;;;;;9.37;66.09;99288.31;5203652;28;20412;-72
2022/09/23 06:24:09;;;;;;;12.57;8.43;;;;;;;9.39;66.21;99276.66;5204584;28;20175;-72
2022/09/23 06:27:02;;;;;;;14.55;7.53;;;;;;;9.67;65.61;99281.41;5199519;28;20108;-71
2022/09/23 06:29:52;;;;;;;12.88;7.95;;;;;;;9.65;66.27;99279.72;5205568;28;20434;-70
2022/09/23 06:32:48;;;;;;;16.17;7.82;;;;;;;9.63;66.23;99281.69;5200732;28;20617;-70
2022/09/23 06:35:39;;;;;;;12.52;7.65;;;;;;;9.89;66.31;99281.25;5169975;28;20049;-70
2022/09/23 06:38:32;;;;;;;25.00;8.07;;;;;;;9.97;66.04;99283.25;5181352;28;20092;-71
2022/09/23 06:41:22;;;;;;;14.43;7.30;;;;;;;10.03;67.02;99277.38;5185769;28;20316;-72
2022/09/23 06:44:13;;;;;;;16.65;7.70;;;;;;;10.29;66.51;99289.22;5194115;28;20202;-71
2022/09/23 06:47:04;;;;;;;14.27;7.70;;;;;;;10.50;64.56;99283.88;5185246;28;20432;-71
2022/09/23 06:49:54;;;;;;;16.75;7.82;;;;;;;10.69;64.60;99300.78;5190833;28;20061;-70
2022/09/23 06:52:50;;;;;;;10.25;7.07;;;;;;;10.95;63.36;99293.13;5204076;28;20666;-71
2022/09/23 06:55:40;;;;;;;14.77;7.03;;;;;;;11.23;62.57;99294.13;5193079;28;20425;-71
2022/09/23 06:58:31;;;;;;;10.95;6.28;;;;;;;11.19;62.92;99296.22;5192548;28;20530;-72
2022/09/23 07:01:22;;;;;;;12.73;6.22;;;;;;;11.55;60.81;99285.81;5191475;28;20057;-72
2022/09/23 07:04:12;;;;;;;9.30;5.65;;;;;;;11.47;61.46;99283.06;5187615;28;20507;-73
2022/09/23 07:07:03;;;;;;;8.23;5.68;;;;;;;11.41;61.41;99270.34;5186126;28;20049;-72
2022/09/23 07:09:53;;;;;;;13.57;6.13;;;;;;;11.37;61.92;99274.25;5185538;28;20052;-72
2022/09/23 07:12:43;;;;;;;11.68;6.03;;;;;;;11.83;61.32;99278.78;5185983;28;20504;-72
2022/09/23 07:15:34;;;;;;;10.82;5.82;;;;;;;12.12;60.33;99278.69;5179642;28;20049;-72
2022/09/23 07:18:25;;;;;;;9.80;5.72;;;;;;;12.73;58.96;99274.56;5193168;28;20673;-71
2022/09/23 07:21:17;;;;;;;10.35;5.65;;;;;;;13.46;56.77;99287.72;5197041;28;20905;-71
2022/09/23 07:24:07;;;;;;;10.27;5.47;;;;;;;14.23;55.37;99286.00;5206541;28;20061;-71
2022/09/23 07:26:58;;;;;;;12.40;5.15;;;;;;;15.27;52.32;99282.94;5194801;28;20439;-71
2022/09/23 07:29:49;;;;;;;17.00;5.97;;;;;;;15.35;52.91;99282.09;5190505;28;20057;-72
2022/09/23 07:32:39;;;;;;;8.05;4.75;;;;;;;15.96;51.27;99282.56;5191903;28;20054;-72
2022/09/23 07:35:40;;;;;;;16.17;7.13;;;;;;;16.04;50.38;99281.72;5184506;28;20407;-73
2022/09/23 07:38:30;;;;;;;7.43;4.57;;;;;;;17.00;48.57;99288.63;5182231;28;20041;-72
2022/09/23 07:41:20;;;;;;;8.75;4.88;;;;;;;17.00;48.40;99278.75;5182795;28;20057;-72
2022/09/23 07:44:11;;;;;;;7.13;4.53;;;;;;;16.59;48.39;99280.81;5184064;28;20053;-72
2022/09/23 07:47:01;;;;;;;5.70;4.07;;;;;;;15.89;50.77;99276.22;5186104;28;20330;-70
2022/09/23 07:49:53;;;;;;;6.35;4.20;;;;;;;16.14;49.83;99271.63;5189188;28;20194;-72
2022/09/23 07:52:43;;;;;;;8.30;3.70;;;;;;;15.87;49.47;99268.38;5191076;28;20142;-72
2022/09/23 07:55:34;;;;;;;8.23;3.85;;;;;;;16.34;50.17;99280.91;5200468;28;20056;-71
2022/09/23 07:58:25;;;;;;;7.25;4.15;;;;;;;16.70;49.60;99275.06;5188969;28;20649;-72
2022/09/23 08:01:14;;;;;;;6.65;3.80;;;;;;;16.47;49.75;99276.84;5191637;28;20068;-71
2022/09/23 08:04:09;;;;;;;9.15;3.72;;;;;;;16.57;49.63;99282.81;5198260;28;20134;-72
2022/09/23 08:07:01;;;;;;;5.88;3.70;;;;;;;16.44;48.91;99273.50;5198290;28;20084;-72
2022/09/23 08:09:51;;;;;;;5.75;4.18;;;;;;;15.95;49.90;99273.69;5191810;28;20103;-72
2022/09/23 08:12:41;;;;;;;21.05;5.72;;;;;;;16.11;49.89;99286.19;5192116;28;20068;-72
2022/09/23 08:15:32;;;;;;;4.03;3.45;;;;;;;16.39;48.58;99286.59;5181797;28;20049;-72
2022/09/23 08:18:23;;;;;;;7.20;3.63;;;;;;;15.77;50.36;99265.06;5181932;28;20418;-72
2022/09/23 08:21:18;;;;;;;4.68;3.55;;;;;;;16.65;48.49;99286.31;5189399;28;20064;-71
2022/09/23 08:24:13;;;;;;;6.10;3.80;;;;;;;16.60;48.64;99271.78;5186916;28;20053;-71
2022/09/23 08:27:03;;;;;;;5.20;3.80;;;;;;;16.65;47.74;99275.59;5194917;28;20144;-72
2022/09/23 08:29:53;;;;;;;8.35;3.42;;;;;;;16.49;49.40;99280.19;5197110;28;20171;-71
2022/09/23 08:32:43;;;;;;;8.07;3.70;;;;;;;16.77;49.19;99289.44;5191707;28;20080;-71
2022/09/23 08:35:33;;;;;;;10.93;3.72;;;;;;;16.86;47.97;99269.63;5190050;28;20587;-71
2022/09/23 08:38:23;;;;;;;6.10;3.90;;;;;;;17.36;45.36;99273.59;5189796;28;20522;-71
2022/09/23 08:41:28;;;;;;;9.20;3.45;;;;;;;17.36;47.34;99278.13;5188647;28;20049;-71
2022/09/23 08:44:25;;;;;;;8.00;3.42;;;;;;;17.56;46.86;99265.88;5189549;28;20056;-72
2022/09/23 08:47:22;;;;;;;4.78;3.95;;;;;;;17.76;45.54;99271.59;5178884;28;20065;-72
2022/09/23 08:50:47;;;;;;;6.93;3.38;;;;;;;17.72;46.94;99277.50;5185148;28;20150;-71
2022/09/23 08:53:39;;;;;;;7.05;3.60;;;;;;;17.79;45.73;99262.34;5171129;28;20057;-72
2022/09/23 08:56:29;;;;;;;8.57;4.32;;;;;;;17.76;45.01;99239.41;5185205;28;20206;-71
2022/09/23 08:59:39;;;;;;;6.57;3.55;;;;;;;18.06;46.97;99263.56;5184436;28;20052;-70
2022/09/23 09:02:34;;;;;;;5.07;3.60;;;;;;;17.82;45.44;99272.72;5184749;28;20056;-71
2022/09/23 09:05:27;;;;;;;6.40;3.72;;;;;;;18.01;45.59;99277.53;5189642;28;20544;-70
2022/09/23 09:08:23;;;;;;;5.32;3.17;;;;;;;18.27;46.43;99274.38;5187468;28;21376;-70
2022/09/23 09:11:16;;;;;;;9.05;3.60;;;;;;;18.60;45.21;99265.88;5192948;28;20072;-70
2022/09/23 09:14:22;;;;;;;6.20;2.97;;;;;;;18.55;44.74;99258.41;5193624;28;20049;-71
2022/09/23 09:17:26;;;;;;;6.68;3.53;;;;;;;19.28;43.30;99268.28;5187458;28;20436;-71
2022/09/23 09:20:56;;;;;;;11.80;3.50;;;;;;;19.59;42.60;99257.16;5190965;28;20711;-70
2022/09/23 09:23:58;;;;;;;8.82;3.60;;;;;;;19.78;43.51;99247.59;5192799;28;20057;-72
2022/09/23 09:26:49;;;;;;;5.38;3.63;;;;;;;19.79;42.42;99257.31;5188032;28;20053;-70
2022/09/23 09:29:54;;;;;;;4.65;3.60;;;;;;;19.79;42.81;99250.06;5187538;28;20543;-73
2022/09/23 09:32:45;;;;;;;;;;;;;;;19.92;43.12;99249.34;5189248;28;20106;-72
2022/09/23 09:35:58;;;;;;;6.80;3.55;;;;;;;20.09;40.89;99245.28;5186272;28;19932;-71
2022/09/23 09:38:49;;;;;;;5.88;3.25;;;;;;;19.98;42.33;99240.47;5186660;28;20049;-72
2022/09/23 09:41:46;;;;;;;5.22;3.10;;;;;;;20.22;42.42;99231.06;5172194;28;20583;-72
2022/09/23 09:44:48;;;;;;;5.63;3.30;;;;;;;20.33;41.33;99233.19;5179677;28;20115;-71
2022/09/23 09:47:46;;;;;;;8.05;2.90;;;;;;;20.52;42.95;99239.69;5190746;28;20057;-72
2022/09/23 09:50:42;;;;;;;6.03;3.15;;;;;;;21.17;39.27;99239.22;5181158;28;20053;-68
2022/09/23 09:53:34;;;;;;;5.70;3.08;;;;;;;21.09;41.35;99219.53;5183831;28;20087;-70
2022/09/23 09:56:34;;;;;;;4.53;3.28;;;;;;;21.31;40.12;99224.72;5197775;28;20125;-68
2022/09/23 09:59:27;;;;;;;8.40;3.50;;;;;;;21.75;41.75;99220.53;5194723;28;20049;-69
2022/09/23 10:02:23;;;;;;;6.63;3.22;;;;;;;21.77;40.93;99208.50;5198258;28;20068;-67
2022/09/23 10:05:27;;;;;;;6.03;2.70;;;;;;;21.81;38.56;99206.19;5201905;28;20063;-68
2022/09/23 10:08:17;;;;;;;6.55;3.00;;;;;;;22.63;36.57;99207.38;5204069;28;20057;-71
2022/09/23 10:11:14;;;;;;;3.30;2.83;;;;;;;22.50;36.39;99208.25;5184846;28;20114;-70
2022/09/23 10:14:16;;;;;;;9.68;2.92;;;;;;;22.63;39.28;99198.44;5188032;28;20060;-71
2022/09/23 10:17:13;;;;;;;5.55;2.95;;;;;;;23.05;37.31;99207.75;5186304;28;20110;-69
2022/09/23 10:20:08;;;;;;;4.53;3.50;;;;;;;23.04;36.46;99202.53;5195694;28;20064;-70
2022/09/23 10:23:05;;;;;;;6.85;3.58;;;;;;;22.38;37.59;99201.03;5177832;28;20126;-71
2022/09/23 10:26:02;;;;;;;9.00;2.42;;;;;;;23.00;36.45;99204.03;5187695;28;20443;-68
2022/09/23 10:28:54;;;;;;;32.03;6.07;;;;;;;22.82;39.56;99204.75;5181228;28;20058;-69
2022/09/23 10:31:44;;;;;;;4.55;2.97;;;;;;;21.90;39.34;99196.00;5187784;28;20068;-70
2022/09/23 10:34:34;;;;;;;33.00;5.10;;;;;;;22.50;39.98;99194.75;5205074;28;20435;-70
2022/09/23 10:37:39;;;;;;;5.20;2.75;;;;;;;22.15;39.89;99201.53;5197255;28;20060;-69
2022/09/23 10:47:49;;;;;;;9.80;3.00;;;;;;;22.14;38.56;99184.50;5172610;28;20092;-70
2022/09/23 10:50:48;;;;;;;9.98;3.42;;;;;;;21.59;39.30;99181.34;5167191;28;20057;-71
2022/09/23 10:53:57;;;;;;;5.20;3.45;;;;;;;21.63;41.37;99184.47;5207592;28;20053;-69
2022/09/23 10:56:53;;;;;;;8.98;3.55;;;;;;;21.10;40.93;99174.53;5183208;28;20484;-70
2022/09/23 11:00:23;;;;;;;9.20;4.37;;;;;;;21.05;38.98;99171.59;5194583;28;21359;-70
2022/09/23 11:03:45;;;;;;;4.15;3.25;;;;;;;21.30;38.93;99163.72;5197555;28;20172;-69
2022/09/23 11:06:51;;;;;;;5.35;3.90;;;;;;;21.34;40.78;99163.13;5191897;28;20057;-70
2022/09/23 11:10:13;;;;;;;7.55;4.07;;;;;;;21.74;41.44;99159.50;5189262;28;20529;-69
2022/09/23 11:13:40;;;;;;;7.13;4.32;;;;;;;21.91;39.16;99152.59;5192672;28;20887;-70
2022/09/23 11:16:39;;;;;;;13.40;4.15;;;;;;;21.60;40.25;99157.91;5178869;28;20152;-70
2022/09/23 11:19:55;;;;;;;6.68;4.13;;;;;;;21.04;40.04;99151.91;5178520;28;20445;-70
2022/09/23 11:22:48;;;;;;;6.75;3.60;;;;;;;21.39;37.66;99149.03;5187497;28;20566;-69
2022/09/23 11:25:53;;;;;;;6.80;4.50;;;;;;;21.62;39.51;99148.53;5183868;28;20064;-70
2022/09/23 11:28:52;;;;;;;7.50;3.78;;;;;;;21.61;40.82;99137.97;5183735;28;20570;-69
2022/09/23 11:31:51;;;;;;;9.50;4.22;;;;;;;21.55;38.51;99136.94;5195398;28;20291;-69
2022/09/23 11:35:20;;;;;;;11.55;3.80;;;;;;;21.47;38.98;99129.06;5200937;28;20069;-70
2022/09/23 11:38:20;;;;;;;13.10;3.83;;;;;;;21.57;38.90;99116.78;5198973;28;20097;-69
2022/09/23 11:41:21;;;;;;;4.95;3.28;;;;;;;21.61;38.13;99125.28;5201558;28;20061;-69
2022/09/23 11:44:30;;;;;;;4.35;2.65;;;;;;;21.47;38.74;99118.28;5200489;28;20230;-70
2022/09/23 11:47:30;;;;;;;5.72;3.03;;;;;;;21.42;39.83;99116.19;5194545;28;20079;-69
2022/09/23 11:50:41;;;;;;;7.40;2.60;;;;;;;21.61;40.68;99122.59;5194789;28;20080;-69
2022/09/23 11:53:46;;;;;;;8.73;3.30;;;;;;;20.77;40.61;99123.31;5192277;28;20621;-69
2022/09/23 11:56:42;;;;;;;4.25;2.70;;;;;;;21.46;38.60;99112.06;5198801;28;21545;-69
2022/09/23 11:59:55;;;;;;;5.80;2.90;;;;;;;21.10;38.48;99107.94;5178339;28;20144;-70
2022/09/23 12:03:04;;;;;;;5.95;3.15;;;;;;;21.25;38.82;99106.88;5199763;28;20065;-71
2022/09/23 12:05:57;;;;;;;4.43;2.83;;;;;;;20.72;41.43;99113.13;5203833;28;20581;-70
2022/09/23 12:08:52;;;;;;;7.75;3.00;;;;;;;21.27;41.28;99110.19;5204150;28;20507;-70
2022/09/23 12:11:52;;;;;;;6.07;3.20;;;;;;;20.83;40.98;99112.53;5201702;28;20167;-70
2022/09/23 12:15:12;;;;;;;4.68;2.92;;;;;;;21.31;41.30;99097.94;5192045;28;20064;-70
2022/09/23 12:18:25;;;;;;;8.38;3.45;;;;;;;21.14;41.23;99105.66;5202927;28;20573;-73
2022/09/23 12:21:45;;;;;;;6.28;3.30;;;;;;;21.52;40.94;99100.44;5200327;28;20160;-73
2022/09/23 12:25:32;;;;;;;8.43;2.85;;;;;;;21.51;40.71;99101.44;5191267;28;20562;-71
2022/09/23 12:28:26;;;;;;;6.97;2.80;;;;;;;21.31;40.91;99095.25;5201211;28;20174;-71
2022/09/23 12:31:19;;;;;;;9.97;3.00;;;;;;;21.42;39.20;99089.22;5211342;28;20132;-70
2022/09/23 12:34:24;;;;;;;7.05;2.88;;;;;;;21.42;39.63;99097.31;5204939;28;20785;-71
2022/09/23 12:37:32;;;;;;;7.72;3.00;;;;;;;21.35;37.60;99091.13;5222439;28;20055;-71
2022/09/23 12:40:30;;;;;;;4.78;2.70;;;;;;;21.26;40.53;99093.19;5191585;28;20514;-70
2022/09/23 12:43:34;;;;;;;5.40;2.80;;;;;;;20.75;40.13;99087.63;5213762;28;20064;-71
2022/09/23 12:46:26;;;;;;;5.65;2.60;;;;;;;21.02;41.49;99086.56;5204071;28;20068;-72
2022/09/23 12:49:27;;;;;;;3.92;2.30;;;;;;;21.04;41.36;99079.13;5208542;28;20622;-72
2022/09/23 12:52:17;;;;;;;3.80;2.10;;;;;;;21.23;40.50;99073.91;5200102;28;20559;-72
2022/09/23 12:55:20;;;;;;;7.10;2.47;;;;;;;21.22;40.19;99072.25;5196645;28;20136;-71
2022/09/23 12:58:47;;;;;;;5.32;2.38;;;;;;;20.96;41.80;99067.72;5189612;28;20100;-71
2022/09/23 13:01:37;;;;;;;5.88;2.20;;;;;;;20.72;41.19;99064.63;5134449;28;20054;-71
2022/09/23 13:07:57;;;;;;;7.72;3.20;;;;;;;20.83;41.43;99057.78;5213627;28;20057;-71
2022/09/23 13:10:57;;;;;;;5.93;3.05;;;;;;;21.20;39.35;99061.69;5203854;28;20448;-71
2022/09/23 13:13:49;;;;;;;7.32;3.03;;;;;;;20.99;40.81;99051.97;5211569;28;20566;-70
2022/09/23 13:16:42;;;;;;;6.72;3.03;;;;;;;20.90;41.52;99047.00;5202799;28;20138;-70
2022/09/23 13:19:32;;;;;;;4.95;2.60;;;;;;;21.01;39.42;99040.97;5194967;28;20063;-70
2022/09/23 13:22:51;;;;;;;5.05;2.70;;;;;;;21.00;39.94;99037.44;5222823;28;20045;-71
2022/09/23 13:25:42;;;;;;;6.47;3.25;;;;;;;21.01;40.64;99033.72;5189722;28;20076;-70
2022/09/23 13:28:52;;;;;;;3.97;3.15;;;;;;;21.08;41.19;99026.44;5216199;28;20106;-71
2022/09/23 13:31:44;;;;;;;4.93;3.03;;;;;;;20.84;41.82;99021.72;5198634;28;20060;-70
2022/09/23 13:34:37;;;;;;;3.35;2.38;;;;;;;20.91;42.60;99035.19;5200581;28;20539;-70
2022/09/23 13:37:41;;;;;;;5.47;3.22;;;;;;;20.18;42.72;99031.41;5194185;28;20084;-71
2022/09/23 13:40:32;;;;;;;6.95;2.67;;;;;;;20.63;43.67;99042.47;5201120;28;20068;-71
2022/09/23 13:43:26;;;;;;;7.97;3.30;;;;;;;20.60;43.75;99024.03;5194768;28;20462;-71
2022/09/23 13:46:22;;;;;;;3.78;2.72;;;;;;;20.87;43.18;99032.91;5214139;28;20055;-72
2022/09/23 13:49:25;;;;;;;4.60;2.95;;;;;;;20.84;41.98;99021.72;5215153;28;20503;-71
2022/09/23 13:52:31;;;;;;;5.43;3.13;;;;;;;20.94;42.02;99027.50;5207339;28;20124;-70
2022/09/23 13:55:30;;;;;;;4.72;3.30;;;;;;;21.04;43.14;99036.00;5215572;28;20049;-71
2022/09/23 13:58:23;;;;;;;4.95;3.35;;;;;;;21.02;40.34;99021.88;5208886;28;20049;-69
2022/09/23 14:01:33;;;;;;;7.22;3.10;;;;;;;20.95;41.82;99012.16;5205513;28;20053;-70
2022/09/23 14:04:24;;;;;;;5.05;3.17;;;;;;;20.92;42.95;99012.56;5212290;28;20057;-70
2022/09/23 14:07:17;;;;;;;5.50;3.13;;;;;;;20.96;43.40;99017.34;5208839;28;20049;-69